createdAt,value
2022-09-11T00:04:45.263Z,16.60
2022-09-11T00:09:48.295Z,16.50
2022-09-11T00:14:51.896Z,16.40
2022-09-11T00:19:54.215Z,16.30
2022-09-11T00:24:56.522Z,16.30
2022-09-11T00:30:00.160Z,16.30
2022-09-11T00:35:02.324Z,16.30
2022-09-11T00:40:05.356Z,16.30
2022-09-11T00:45:19.721Z,16.30
2022-09-11T00:50:25.372Z,16.30
2022-09-11T00:55:32.487Z,16.30
2022-09-11T01:00:36.705Z,16.30
2022-09-11T01:05:41.366Z,16.20
2022-09-11T01:10:59.213Z,16.20
2022-09-11T01:16:13.100Z,16.00
2022-09-11T01:21:41.887Z,15.90
2022-09-11T01:27:10.736Z,15.80
2022-09-11T01:32:21.681Z,15.80
2022-09-11T01:37:29.999Z,15.80
2022-09-11T01:42:35.142Z,15.80
2022-09-11T01:47:41.526Z,15.70
2022-09-11T01:52:48.532Z,15.80
2022-09-11T01:57:56.360Z,15.70
2022-09-11T02:03:04.255Z,15.70
2022-09-11T02:08:12.080Z,15.70
2022-09-11T02:13:18.866Z,15.70
2022-09-11T02:18:26.231Z,15.60
2022-09-11T02:23:28.474Z,15.60
2022-09-11T02:28:30.737Z,15.50
2022-09-11T02:33:36.397Z,15.50
2022-09-11T02:38:47.846Z,15.40
2022-09-11T02:43:58.935Z,15.30
2022-09-11T02:49:10.318Z,15.30
2022-09-11T02:54:20.314Z,15.30
2022-09-11T02:59:26.633Z,15.30
2022-09-11T03:04:30.879Z,15.20
2022-09-11T03:09:33.043Z,15.20
2022-09-11T03:14:35.226Z,15.10
2022-09-11T03:19:38.844Z,15.20
2022-09-11T03:24:41.118Z,15.10
2022-09-11T03:29:43.439Z,15.10
2022-09-11T03:34:47.269Z,15.10
2022-09-11T03:39:49.708Z,15.10
2022-09-11T03:44:51.856Z,15.00
2022-09-11T03:49:55.456Z,15.00
2022-09-11T03:54:57.634Z,14.90
2022-09-11T03:59:59.850Z,14.90
2022-09-11T04:05:03.616Z,14.80
2022-09-11T04:10:06.403Z,14.70
2022-09-11T04:15:09.272Z,14.60
2022-09-11T04:20:12.891Z,14.60
2022-09-11T04:25:15.354Z,14.60
2022-09-11T04:30:17.630Z,14.60
2022-09-11T04:35:21.300Z,14.60
2022-09-11T04:40:23.581Z,14.60
2022-09-11T04:45:25.841Z,14.60
2022-09-11T04:50:29.594Z,14.50
2022-09-11T04:55:31.770Z,14.50
2022-09-11T05:00:33.958Z,14.50
2022-09-11T05:05:37.587Z,14.50
2022-09-11T05:10:39.789Z,14.50
2022-09-11T05:15:41.918Z,14.50
2022-09-11T05:20:45.543Z,14.50
2022-09-11T05:25:47.679Z,14.50
2022-09-11T05:30:49.910Z,14.40
2022-09-11T05:35:55.143Z,14.40
2022-09-11T05:40:57.496Z,14.50
2022-09-11T05:46:00.244Z,14.50
2022-09-11T05:51:06.435Z,14.70
2022-09-11T05:56:11.756Z,14.90
2022-09-11T06:01:16.061Z,15.10
2022-09-11T06:06:22.148Z,15.40
2022-09-11T06:11:24.340Z,15.70
2022-09-11T06:16:26.753Z,16.20
2022-09-11T06:21:30.382Z,16.60
2022-09-11T06:26:32.653Z,17.00
2022-09-11T06:31:34.895Z,17.30
2022-09-11T06:36:38.885Z,17.60
2022-09-11T06:41:41.082Z,17.80
2022-09-11T06:46:43.242Z,18.10
2022-09-11T06:51:46.882Z,18.60
2022-09-11T06:56:49.125Z,19.30
2022-09-11T07:01:51.532Z,19.90
2022-09-11T07:06:55.503Z,20.70
2022-09-11T07:11:57.805Z,21.40
2022-09-11T07:16:59.997Z,22.10
2022-09-11T07:22:03.672Z,22.80
2022-09-11T07:27:06.011Z,23.30
2022-09-11T07:32:08.250Z,23.40
2022-09-11T07:37:11.899Z,23.60
2022-09-11T07:42:14.238Z,23.90
2022-09-11T07:47:16.474Z,24.70
2022-09-11T07:52:20.259Z,25.80
2022-09-11T07:57:22.429Z,26.60
2022-09-11T08:02:24.620Z,26.90
2022-09-11T08:07:28.336Z,27.00
2022-09-11T08:12:30.760Z,27.20
2022-09-11T08:17:33.106Z,27.60
2022-09-11T08:22:37.164Z,28.20
2022-09-11T08:27:39.604Z,29.00
2022-09-11T08:32:42.007Z,29.70
2022-09-11T08:37:46.143Z,30.40
2022-09-11T08:42:48.939Z,31.10
2022-09-11T08:47:59.600Z,31.80
2022-09-11T08:53:10.931Z,31.90
2022-09-11T08:58:25.972Z,31.40
2022-09-11T09:03:48.885Z,31.10
2022-09-11T09:09:02.317Z,30.80
2022-09-11T09:14:24.963Z,30.20
2022-09-11T09:19:35.194Z,29.80
2022-09-11T09:24:46.056Z,29.80
2022-09-11T09:29:52.882Z,30.10
2022-09-11T09:35:00.729Z,31.00
2022-09-11T09:40:08.553Z,31.90
2022-09-11T09:45:35.068Z,32.60
2022-09-11T09:51:00.800Z,33.10
2022-09-11T09:56:06.100Z,33.90
2022-09-11T10:01:47.318Z,34.40
2022-09-11T10:07:00.094Z,34.50
2022-09-11T10:13:18.746Z,34.00
2022-09-11T10:18:55.045Z,33.20
2022-09-11T10:24:21.456Z,32.20
2022-09-11T10:29:26.713Z,31.60
2022-09-11T10:34:40.640Z,31.70
2022-09-11T10:39:46.605Z,32.30
2022-09-11T10:44:51.368Z,33.00
2022-09-11T10:50:21.378Z,33.80
2022-09-11T10:55:29.955Z,34.50
2022-09-11T11:00:33.461Z,35.10
2022-09-11T11:05:55.521Z,35.30
2022-09-11T11:11:15.914Z,35.50
2022-09-11T11:16:44.768Z,35.70
2022-09-11T11:22:13.746Z,35.80
2022-09-11T11:27:48.484Z,35.50
2022-09-11T11:33:53.188Z,35.10
2022-09-11T11:39:35.725Z,35.20
2022-09-11T11:46:02.368Z,35.30
2022-09-11T11:51:27.927Z,35.60
2022-09-11T11:57:15.269Z,35.80
2022-09-11T12:02:28.982Z,35.80
2022-09-11T12:07:33.442Z,35.30
2022-09-11T12:12:58.832Z,34.40
2022-09-11T12:18:07.545Z,33.60
2022-09-11T12:23:34.340Z,33.00
2022-09-11T12:28:40.874Z,32.50
2022-09-11T12:33:55.084Z,32.10
2022-09-11T12:39:00.759Z,31.80
2022-09-11T12:44:06.237Z,31.50
2022-09-11T12:49:22.184Z,31.60
2022-09-11T12:54:30.139Z,31.80
2022-09-11T12:59:36.978Z,32.10
2022-09-11T13:04:43.680Z,32.20
2022-09-11T13:09:49.279Z,32.30
2022-09-11T13:14:54.398Z,32.10
2022-09-11T13:20:18.531Z,31.90
2022-09-11T13:25:22.679Z,31.80
2022-09-11T13:30:27.632Z,31.70
2022-09-11T13:35:30.433Z,31.40
2022-09-11T13:40:42.242Z,31.20
2022-09-11T13:45:46.903Z,31.00
2022-09-11T13:50:51.014Z,30.80
2022-09-11T13:55:53.884Z,30.60
2022-09-11T14:01:10.898Z,30.40
2022-09-11T14:06:16.929Z,30.30
2022-09-11T14:11:26.663Z,30.40
2022-09-11T14:16:35.275Z,30.40
2022-09-11T14:21:40.773Z,30.40
2022-09-11T14:26:43.711Z,30.40
2022-09-11T14:31:49.208Z,30.40
2022-09-11T14:36:55.342Z,30.30
2022-09-11T14:41:58.424Z,30.10
2022-09-11T14:47:03.583Z,29.70
2022-09-11T14:52:17.337Z,29.40
2022-09-11T14:57:22.327Z,29.20
2022-09-11T15:02:28.119Z,29.10
2022-09-11T15:07:30.594Z,28.90
2022-09-11T15:12:33.270Z,28.80
2022-09-11T15:17:37.485Z,28.60
2022-09-11T15:22:40.030Z,28.50
2022-09-11T15:27:42.532Z,28.30
2022-09-11T15:32:46.772Z,28.20
2022-09-11T15:37:50.557Z,28.00
2022-09-11T15:42:58.311Z,27.90
2022-09-11T15:48:02.705Z,27.70
2022-09-11T15:53:05.239Z,27.60
2022-09-11T15:58:07.748Z,27.50
2022-09-11T16:03:11.704Z,27.40
2022-09-11T16:08:14.218Z,27.30
2022-09-11T16:13:17.699Z,27.20
2022-09-11T16:18:21.832Z,27.00
2022-09-11T16:23:24.861Z,26.90
2022-09-11T16:28:27.422Z,26.80
2022-09-11T16:33:32.145Z,26.60
2022-09-11T16:38:37.655Z,26.20
2022-09-11T16:43:41.360Z,25.80
2022-09-11T16:48:48.466Z,25.50
2022-09-11T16:53:54.517Z,25.30
2022-09-11T16:58:56.950Z,25.10
2022-09-11T17:04:01.120Z,25.00
2022-09-11T17:09:04.979Z,25.00
2022-09-11T17:14:07.521Z,24.90
2022-09-11T17:19:12.141Z,24.80
2022-09-11T17:24:14.573Z,24.70
2022-09-11T17:29:17.269Z,24.50
2022-09-11T17:34:21.254Z,24.30
2022-09-11T17:39:23.863Z,24.00
2022-09-11T17:44:26.334Z,23.70
2022-09-11T17:49:32.206Z,23.60
2022-09-11T17:54:39.808Z,23.50
2022-09-11T18:00:03.034Z,23.20
2022-09-11T18:05:13.229Z,23.00
2022-09-11T18:10:15.805Z,22.70
2022-09-11T18:15:18.451Z,22.40
2022-09-11T18:20:22.320Z,22.10
2022-09-11T18:25:24.715Z,21.80
2022-09-11T18:30:36.553Z,21.40
2022-09-11T18:35:40.804Z,21.20
2022-09-11T18:40:48.643Z,21.10
2022-09-11T18:45:56.407Z,21.00
2022-09-11T18:51:08.177Z,20.80
2022-09-11T18:56:14.478Z,20.50
2022-09-11T19:01:22.239Z,20.30
2022-09-11T19:06:31.113Z,20.00
2022-09-11T19:11:36.351Z,19.70
2022-09-11T19:16:42.418Z,19.50
2022-09-11T19:21:53.914Z,19.50
2022-09-11T19:26:56.401Z,19.50
2022-09-11T19:32:00.265Z,19.40
2022-09-11T19:37:10.622Z,19.20
2022-09-11T19:42:19.597Z,19.10
2022-09-11T19:47:23.379Z,19.00
2022-09-11T19:52:30.998Z,18.90
2022-09-11T19:57:38.790Z,18.90
2022-09-11T20:02:44.432Z,18.90
2022-09-11T20:07:50.126Z,18.90
2022-09-11T20:13:03.562Z,18.90
2022-09-11T20:18:27.087Z,18.80
2022-09-11T20:23:32.892Z,18.80
2022-09-11T20:28:35.694Z,18.80
2022-09-11T20:33:45.685Z,18.70
2022-09-11T20:38:51.896Z,18.70
2022-09-11T20:44:00.559Z,18.50
2022-09-11T20:49:18.508Z,18.40
2022-09-11T20:54:24.215Z,18.30
2022-09-11T20:59:26.832Z,18.20
2022-09-11T21:04:29.305Z,18.10
2022-09-11T21:09:33.544Z,18.10
2022-09-11T21:14:35.971Z,18.00
2022-09-11T21:19:38.508Z,17.90
2022-09-11T21:24:42.355Z,17.80
2022-09-11T21:29:44.808Z,17.80
2022-09-11T21:34:47.266Z,17.70
2022-09-11T21:39:51.391Z,17.60
2022-09-11T21:44:53.775Z,17.50
2022-09-11T21:49:56.147Z,17.40
2022-09-11T21:55:00.146Z,17.30
2022-09-11T22:00:03.514Z,17.20
2022-09-11T22:05:06.881Z,17.20
2022-09-11T22:10:11.167Z,17.10
2022-09-11T22:15:13.717Z,17.00
2022-09-11T22:20:16.359Z,16.90
2022-09-11T22:25:20.244Z,16.90
2022-09-11T22:30:24.188Z,16.90
2022-09-11T22:35:27.150Z,16.80
2022-09-11T22:40:31.213Z,16.80
2022-09-11T22:45:33.882Z,16.80
2022-09-11T22:50:36.352Z,16.70
2022-09-11T22:55:44.004Z,16.70
2022-09-11T23:00:46.822Z,16.60
2022-09-11T23:05:54.615Z,16.60
2022-09-11T23:11:02.784Z,16.50
2022-09-11T23:16:12.534Z,16.50
2022-09-11T23:21:15.398Z,16.50
2022-09-11T23:26:19.508Z,16.40
2022-09-11T23:31:23.946Z,16.40
2022-09-11T23:36:27.799Z,16.30
2022-09-11T23:41:31.793Z,16.30
2022-09-11T23:46:34.750Z,16.20
2022-09-11T23:51:37.181Z,16.20
2022-09-11T23:56:40.983Z,16.20
